Time;durP1;ratioP1;P1;durP2;ratioP2;P2;SDS_P1;SDS_P2;PMS_P1;PMS_P2;Temp;Humidity;BMP_temperature;BMP_pressure;BME280_temperature;BME280_humidity;BME280_pressure;Samples;Min_cycle;Max_cycle;Signal;HPM_P1;HPM_P2
2021/12/08 00:00:53;;;;;;;1.67;0.90;;;;;;;5.61;86.80;97575.13;6138125;23;20009;-80
2021/12/08 00:03:19;;;;;;;1.98;0.75;;;;;;;5.60;87.03;97567.34;6138186;23;20037;-80
2021/12/08 00:05:45;;;;;;;1.10;0.70;;;;;;;5.61;86.56;97558.41;6138281;23;20040;-81
2021/12/08 00:08:11;;;;;;;1.30;0.60;;;;;;;5.62;86.84;97560.88;6162632;23;20013;-81
2021/12/08 00:13:28;;;;;;;1.23;0.75;;;;;;;5.60;86.88;97554.09;6162500;23;20012;-82
2021/12/08 00:15:55;;;;;;;1.88;0.80;;;;;;;5.65;86.98;97555.25;6138486;23;20005;-81
2021/12/08 00:18:24;;;;;;;0.88;0.70;;;;;;;5.65;87.25;97541.16;6138031;23;20012;-81
2021/12/08 00:20:51;;;;;;;;;;;;;;;5.62;87.09;97552.09;6139156;23;20005;-81
2021/12/08 00:23:17;;;;;;;3.05;0.70;;;;;;;5.60;87.47;97554.09;6113715;23;19955;-80
2021/12/08 00:25:43;;;;;;;0.82;0.60;;;;;;;5.65;87.63;97573.81;6138428;23;20005;-79
2021/12/08 00:28:08;;;;;;;2.13;0.93;;;;;;;5.64;86.96;97561.56;6162552;23;20012;-80
2021/12/08 00:30:35;;;;;;;0.68;0.60;;;;;;;5.60;87.33;97570.84;6163075;23;20100;-79
2021/12/08 00:33:02;;;;;;;0.77;0.70;;;;;;;5.60;88.09;97572.66;6162587;23;20008;-82
2021/12/08 00:35:28;;;;;;;2.35;0.70;;;;;;;5.63;88.14;97572.31;6162835;23;20009;-81
2021/12/08 00:37:56;;;;;;;0.70;0.50;;;;;;;5.66;87.97;97574.63;6138243;23;20010;-79
2021/12/08 00:40:22;;;;;;;0.85;0.70;;;;;;;5.67;87.95;97574.47;6138260;23;20010;-82
2021/12/08 00:42:48;;;;;;;0.88;0.60;;;;;;;5.63;87.96;97573.16;6138168;23;20326;-83
2021/12/08 00:45:17;;;;;;;0.70;0.57;;;;;;;5.65;88.25;97588.88;6125976;23;20009;-84
2021/12/08 00:47:44;;;;;;;0.70;0.68;;;;;;;5.66;88.19;97577.28;6163170;23;20028;-81
2021/12/08 00:50:10;;;;;;;0.55;0.55;;;;;;;5.61;88.35;97580.44;6137197;23;20017;-81
2021/12/08 00:52:36;;;;;;;1.00;0.60;;;;;;;5.60;88.55;97592.03;6138322;23;20005;-80
2021/12/08 00:55:04;;;;;;;0.85;0.60;;;;;;;5.63;88.12;97589.06;6137657;23;20017;-80
2021/12/08 00:57:29;;;;;;;1.25;0.60;;;;;;;5.62;88.15;97597.19;6162624;23;20009;-83
2021/12/08 00:59:54;;;;;;;0.63;0.60;;;;;;;5.62;88.37;97595.34;6138316;23;20013;-83
2021/12/08 01:02:20;;;;;;;0.82;0.60;;;;;;;5.62;88.71;97605.13;6137746;23;20016;-83
2021/12/08 01:04:45;;;;;;;1.15;0.60;;;;;;;5.65;88.32;97602.97;6162587;23;20021;-81
2021/12/08 01:07:11;;;;;;;0.70;0.50;;;;;;;5.65;88.81;97599.50;6138369;23;20117;-81
2021/12/08 01:09:36;;;;;;;0.40;0.40;;;;;;;5.65;88.58;97587.06;6162766;23;20028;-82
2021/12/08 01:12:03;;;;;;;0.77;0.55;;;;;;;5.64;88.92;97574.81;6138286;23;20025;-82
2021/12/08 01:14:35;;;;;;;1.00;0.60;;;;;;;5.65;89.00;97583.59;6162519;23;20088;-80
2021/12/08 01:17:02;;;;;;;0.40;0.40;;;;;;;5.63;88.74;97596.19;6162683;23;20009;-81
2021/12/08 01:19:27;;;;;;;0.60;0.50;;;;;;;5.64;89.04;97589.88;6138488;23;20315;-80
2021/12/08 01:21:53;;;;;;;0.60;0.43;;;;;;;5.63;88.68;97593.53;6137637;23;20056;-81
2021/12/08 01:24:19;;;;;;;0.52;0.40;;;;;;;5.61;88.72;97591.03;6137689;23;20006;-80
2021/12/08 01:26:44;;;;;;;0.40;0.40;;;;;;;5.63;89.02;97583.75;6113345;23;20033;-82
2021/12/08 01:29:10;;;;;;;0.40;0.40;;;;;;;5.63;88.96;97593.53;6138007;23;20012;-81
2021/12/08 01:31:40;;;;;;;0.75;0.50;;;;;;;5.64;89.31;97601.31;6137874;23;20010;-82
2021/12/08 01:34:06;;;;;;;1.60;0.60;;;;;;;5.61;89.16;97593.69;6163602;23;20040;-83
2021/12/08 01:36:31;;;;;;;0.52;0.50;;;;;;;5.62;88.83;97589.22;6137936;23;20002;-80
2021/12/08 01:38:56;;;;;;;1.10;0.47;;;;;;;5.64;89.24;97597.84;6164162;23;19998;-82
2021/12/08 01:41:23;;;;;;;0.73;0.50;;;;;;;5.64;89.83;97603.13;6138077;23;20005;-80
2021/12/08 01:46:33;;;;;;;0.38;0.35;;;;;;;5.64;89.66;97611.91;6141818;23;20076;-81
2021/12/08 01:48:59;;;;;;;0.82;0.43;;;;;;;5.65;89.36;97618.06;6138251;23;20009;-82
2021/12/08 01:51:25;;;;;;;1.08;0.50;;;;;;;5.63;89.42;97622.69;6137937;23;20068;-82
2021/12/08 01:53:52;;;;;;;2.03;0.60;;;;;;;5.62;89.67;97613.91;6137876;23;20313;-81
2021/12/08 01:56:20;;;;;;;1.10;0.50;;;;;;;5.60;89.70;97626.50;6164820;23;20033;-81
2021/12/08 01:58:46;;;;;;;1.63;0.57;;;;;;;5.61;90.17;97624.69;6164272;23;20033;-80
2021/12/08 02:01:19;;;;;;;1.55;0.60;;;;;;;5.64;90.08;97634.94;6163766;23;20009;-80
2021/12/08 02:03:45;;;;;;;1.15;0.50;;;;;;;5.65;90.33;97633.97;6139488;23;20013;-82
2021/12/08 02:06:12;;;;;;;1.95;0.50;;;;;;;5.67;89.84;97632.78;6165759;23;20037;-81
2021/12/08 02:08:37;;;;;;;0.90;0.50;;;;;;;5.69;89.89;97645.91;6163874;23;20044;-81
2021/12/08 02:11:04;;;;;;;2.50;0.55;;;;;;;5.69;90.57;97640.63;6139050;23;20006;-81
2021/12/08 02:13:36;;;;;;;3.10;0.50;;;;;;;5.72;90.14;97656.19;6163521;23;20006;-81
2021/12/08 02:16:03;;;;;;;4.15;0.80;;;;;;;5.68;90.55;97654.88;6140705;23;20006;-82
2021/12/08 02:18:28;;;;;;;2.53;0.95;;;;;;;5.68;90.38;97649.56;6139482;23;20016;-82
2021/12/08 02:20:57;;;;;;;2.47;0.90;;;;;;;5.65;90.93;97656.00;6139567;23;20009;-81
2021/12/08 02:23:23;;;;;;;3.60;0.70;;;;;;;5.69;90.51;97649.41;6139541;23;20002;-83
2021/12/08 02:25:49;;;;;;;3.72;0.90;;;;;;;5.71;90.57;97649.22;6139362;23;20010;-81
2021/12/08 02:28:14;;;;;;;5.95;1.00;;;;;;;5.73;91.14;97652.56;6140112;23;20080;-80
2021/12/08 02:47:11;;;;;;;5.72;0.90;;;;;;;5.73;91.65;97660.50;6143411;23;20059;-80
2021/12/08 02:49:38;;;;;;;2.42;0.90;;;;;;;5.77;91.30;97669.78;6143858;23;20041;-83
2021/12/08 02:52:06;;;;;;;4.38;0.75;;;;;;;5.75;91.16;97668.28;6139345;23;20065;-81
2021/12/08 02:54:38;;;;;;;4.65;1.20;;;;;;;5.72;91.19;97671.28;6163660;23;20036;-82
2021/12/08 02:57:04;;;;;;;6.47;1.50;;;;;;;5.69;91.22;97678.56;6139190;23;20009;-81
2021/12/08 02:59:30;;;;;;;2.80;1.00;;;;;;;5.72;90.92;97679.22;6139269;23;20044;-82
2021/12/08 03:01:55;;;;;;;3.08;0.85;;;;;;;5.74;91.49;97688.69;6114391;23;20009;-81
2021/12/08 03:04:21;;;;;;;6.57;1.10;;;;;;;5.73;91.15;97686.19;6139237;23;20009;-80
2021/12/08 03:06:46;;;;;;;7.30;1.20;;;;;;;5.70;91.39;97690.00;6139352;23;20013;-82
2021/12/08 03:09:12;;;;;;;7.70;1.33;;;;;;;5.70;91.40;97692.66;6165107;23;20020;-81
2021/12/08 03:11:37;;;;;;;6.93;1.30;;;;;;;5.68;90.69;97692.81;6114306;23;20048;-80
2021/12/08 03:14:11;;;;;;;4.78;1.13;;;;;;;5.65;91.37;97692.28;6138836;23;20025;-81
2021/12/08 03:16:40;;;;;;;2.25;0.95;;;;;;;5.69;91.17;97688.34;6139082;23;20012;-83
2021/12/08 03:19:05;;;;;;;3.55;0.93;;;;;;;5.68;91.28;97684.88;6139362;23;20014;-80
2021/12/08 03:21:32;;;;;;;4.78;1.15;;;;;;;5.72;90.67;97689.84;6139021;23;20008;-80
2021/12/08 03:26:33;;;;;;;6.25;1.23;;;;;;;5.68;90.90;97697.28;6140573;23;20017;-79
2021/12/08 03:29:14;;;;;;;5.20;1.20;;;;;;;5.66;90.40;97693.94;6139135;23;20438;-81
2021/12/08 03:31:43;;;;;;;6.03;1.20;;;;;;;5.66;90.95;97691.28;6141698;23;20009;-80
2021/12/08 03:34:08;;;;;;;5.88;1.02;;;;;;;5.65;91.01;97693.13;6139224;23;20040;-81
2021/12/08 03:36:33;;;;;;;4.63;1.10;;;;;;;5.63;90.96;97705.69;6138464;23;20033;-82
2021/12/08 03:38:59;;;;;;;4.45;0.90;;;;;;;5.62;90.88;97697.91;6138423;23;20013;-82
2021/12/08 03:41:25;;;;;;;3.75;1.10;;;;;;;5.63;90.98;97696.91;6137913;23;20014;-81
2021/12/08 03:43:51;;;;;;;3.63;0.90;;;;;;;5.66;90.53;97704.53;6138636;23;20453;-83
2021/12/08 03:46:18;;;;;;;8.75;1.42;;;;;;;5.65;90.60;97701.06;6138708;23;20033;-81
2021/12/08 03:48:49;;;;;;;5.95;1.17;;;;;;;5.68;89.89;97706.06;6139047;23;20021;-83
2021/12/08 03:51:16;;;;;;;4.88;1.15;;;;;;;5.68;89.36;97718.50;6140146;23;20001;-79
2021/12/08 03:53:42;;;;;;;5.75;1.00;;;;;;;5.72;89.42;97719.00;6138169;23;20002;-80
2021/12/08 03:56:07;;;;;;;3.88;1.00;;;;;;;5.70;89.84;97727.13;6163267;23;20037;-82
2021/12/08 03:58:32;;;;;;;4.25;1.23;;;;;;;5.70;89.12;97727.13;6138765;23;20053;-79
2021/12/08 04:00:58;;;;;;;4.68;1.08;;;;;;;5.69;89.41;97730.75;6138517;23;20061;-80
2021/12/08 04:03:26;;;;;;;4.72;1.05;;;;;;;5.68;89.36;97734.41;6138388;23;20005;-81
2021/12/08 04:06:01;;;;;;;4.03;0.88;;;;;;;5.68;89.73;97727.28;6163495;23;20015;-81
2021/12/08 04:08:40;;;;;;;5.00;1.15;;;;;;;5.65;89.75;97716.97;6140404;23;20013;-80
2021/12/08 04:11:07;;;;;;;5.93;1.42;;;;;;;5.64;89.92;97709.19;6162796;23;20010;-81
2021/12/08 04:13:38;;;;;;;4.53;1.10;;;;;;;5.61;89.77;97712.16;6138176;23;20013;-82
2021/12/08 04:16:04;;;;;;;5.53;0.98;;;;;;;5.62;89.21;97713.81;6138872;23;20061;-81
2021/12/08 04:18:30;;;;;;;3.30;1.10;;;;;;;5.65;90.33;97709.00;6137852;23;20011;-80
2021/12/08 04:20:58;;;;;;;3.95;1.10;;;;;;;5.65;89.88;97711.66;6138205;23;20045;-81
2021/12/08 04:23:26;;;;;;;5.35;1.15;;;;;;;5.63;89.53;97716.31;6164058;23;20008;-81
2021/12/08 04:25:54;;;;;;;4.68;1.10;;;;;;;5.65;90.19;97721.44;6138321;23;20020;-79
2021/12/08 04:28:28;;;;;;;2.92;1.00;;;;;;;5.62;90.04;97714.66;6164095;23;20314;-82
2021/12/08 04:30:57;;;;;;;6.07;0.90;;;;;;;5.64;90.25;97719.78;6139091;23;20136;-81
2021/12/08 04:33:23;;;;;;;4.10;1.17;;;;;;;5.63;90.28;97729.56;6164205;23;20081;-82
2021/12/08 04:35:51;;;;;;;5.50;1.00;;;;;;;5.63;90.12;97736.69;6138329;23;20729;-80
2021/12/08 04:38:23;;;;;;;7.45;1.48;;;;;;;5.62;90.23;97740.31;6162794;23;20010;-81
2021/12/08 04:43:25;;;;;;;7.28;1.20;;;;;;;5.60;90.30;97763.53;6138422;23;20022;-81
2021/12/08 04:48:43;;;;;;;3.55;1.20;;;;;;;5.55;90.22;97766.66;6139177;23;20012;-81
2021/12/08 04:51:43;;;;;;;5.63;1.08;;;;;;;5.52;90.26;97768.78;6142053;23;20017;-80
2021/12/08 05:03:04;;;;;;;3.92;1.30;;;;;;;5.61;88.64;97771.31;6141718;23;20020;-81
2021/12/08 05:08:12;;;;;;;4.95;1.40;;;;;;;5.56;88.77;97757.72;6138056;23;20009;-79
2021/12/08 05:10:38;;;;;;;6.25;1.15;;;;;;;5.54;88.83;97753.56;6140964;23;20005;-82
2021/12/08 05:13:06;;;;;;;4.50;1.23;;;;;;;5.54;89.14;97756.22;6138465;23;20019;-81
2021/12/08 05:15:45;;;;;;;3.33;0.93;;;;;;;5.56;88.89;97755.06;6138073;23;20017;-81
2021/12/08 05:18:15;;;;;;;3.15;1.02;;;;;;;5.61;88.95;97749.28;6137693;23;20069;-80
2021/12/08 05:21:01;;;;;;;6.55;1.20;;;;;;;5.57;88.93;97761.19;6137781;23;20096;-84
2021/12/08 05:23:31;;;;;;;6.70;1.30;;;;;;;5.55;89.27;97768.47;6163480;23;20064;-79
2021/12/08 05:25:58;;;;;;;6.68;1.13;;;;;;;5.60;89.24;97774.13;6138460;23;20014;-82
2021/12/08 05:28:26;;;;;;;6.55;1.20;;;;;;;5.56;88.22;97776.25;6162294;23;20001;-84
2021/12/08 05:30:55;;;;;;;5.00;1.10;;;;;;;5.58;88.14;97782.22;6139253;23;20010;-80
2021/12/08 05:33:22;;;;;;;3.30;1.10;;;;;;;5.63;87.83;97773.81;6139296;23;20085;-81
2021/12/08 05:35:48;;;;;;;5.63;0.90;;;;;;;5.58;87.85;97773.44;6139716;23;20005;-80
2021/12/08 05:38:15;;;;;;;3.20;1.10;;;;;;;5.56;87.55;97784.22;6139996;23;20033;-82
2021/12/08 05:40:53;;;;;;;5.30;1.60;;;;;;;5.56;87.92;97776.25;6139619;23;20020;-82
2021/12/08 05:43:19;;;;;;;3.63;0.88;;;;;;;5.55;87.10;97781.72;6164160;23;20009;-82
2021/12/08 05:45:50;;;;;;;4.15;1.08;;;;;;;5.56;86.99;97791.34;6164363;23;20084;-82
2021/12/08 05:48:15;;;;;;;4.80;1.10;;;;;;;5.57;87.27;97780.56;6140003;23;20005;-81
2021/12/08 05:51:00;;;;;;;4.45;1.15;;;;;;;5.60;86.82;97782.06;6139658;23;20382;-82
2021/12/08 05:53:26;;;;;;;4.78;1.00;;;;;;;5.54;86.32;97794.16;6165115;23;20006;-80
2021/12/08 05:55:52;;;;;;;5.05;1.13;;;;;;;5.50;86.63;97790.16;6140076;23;20017;-82
2021/12/08 05:58:20;;;;;;;6.15;1.17;;;;;;;5.45;85.85;97784.50;6139550;23;20070;-82
2021/12/08 06:00:58;;;;;;;5.80;1.20;;;;;;;5.47;85.47;97794.94;6139843;23;20033;-82
2021/12/08 06:03:25;;;;;;;2.65;0.85;;;;;;;5.45;84.99;97794.28;6139558;23;20422;-82
2021/12/08 06:05:52;;;;;;;4.22;1.08;;;;;;;5.43;84.91;97797.09;6164261;23;20002;-81
2021/12/08 06:08:19;;;;;;;4.90;1.17;;;;;;;5.43;84.80;97796.25;6164208;23;20016;-81
2021/12/08 06:10:44;;;;;;;3.50;1.20;;;;;;;5.44;84.85;97801.41;6164081;23;20001;-82
2021/12/08 06:13:12;;;;;;;26.27;11.77;;;;;;;5.46;84.86;97803.91;6139498;23;20027;-83
2021/12/08 06:15:39;;;;;;;31.77;15.13;;;;;;;5.47;84.92;97806.38;6164044;23;20017;-81
2021/12/08 06:18:05;;;;;;;33.15;15.98;;;;;;;5.45;84.65;97797.75;6164349;23;20013;-80
2021/12/08 06:20:30;;;;;;;70.57;40.55;;;;;;;5.44;85.12;97801.41;6163852;23;20571;-82
2021/12/08 06:22:57;;;;;;;69.82;38.42;;;;;;;5.43;83.82;97815.66;6164122;23;20006;-83
2021/12/08 06:25:23;;;;;;;42.85;25.42;;;;;;;5.43;84.74;97822.75;6139247;23;20449;-80
2021/12/08 06:27:48;;;;;;;18.02;10.20;;;;;;;5.41;84.41;97822.09;6164291;23;20009;-82
2021/12/08 06:30:18;;;;;;;7.93;3.70;;;;;;;5.41;84.59;97819.44;6163985;23;20037;-80
2021/12/08 06:32:44;;;;;;;9.00;2.30;;;;;;;5.38;84.38;97813.47;6114336;23;20017;-81
2021/12/08 06:35:14;;;;;;;15.70;7.80;;;;;;;5.39;84.75;97801.06;6137971;23;20096;-80
2021/12/08 06:37:41;;;;;;;18.33;10.02;;;;;;;5.44;84.28;97812.00;6162783;23;20491;-81
2021/12/08 06:40:25;;;;;;;62.47;35.25;;;;;;;5.36;84.60;97809.31;6163496;23;20014;-82
2021/12/08 06:42:53;;;;;;;59.38;34.10;;;;;;;5.39;84.15;97809.00;6162153;23;20013;-81
2021/12/08 06:45:26;;;;;;;53.28;32.65;;;;;;;5.41;84.30;97809.69;6164602;23;20009;-82
2021/12/08 06:47:54;;;;;;;81.53;48.33;;;;;;;5.40;84.40;97809.84;6163245;23;20033;-79
2021/12/08 06:50:26;;;;;;;71.22;44.65;;;;;;;5.38;84.80;97816.13;6163368;23;20099;-80
2021/12/08 06:52:53;;;;;;;55.63;35.70;;;;;;;5.37;84.51;97813.63;6162628;23;20092;-83
2021/12/08 06:55:53;;;;;;;42.88;27.50;;;;;;;5.37;83.89;97824.22;6162492;23;20052;-82
2021/12/08 06:58:22;;;;;;;40.28;26.77;;;;;;;5.36;84.58;97817.28;6076649;23;20009;-84
2021/12/08 07:06:47;;;;;;;;;;;;;;;5.31;84.21;97809.78;6163020;23;20020;-82
2021/12/08 07:09:37;;;;;;;13.27;7.47;;;;;;;5.35;83.95;97815.59;6115789;23;19916;-83
2021/12/08 07:12:16;;;;;;;20.02;11.13;;;;;;;5.34;84.41;97822.72;6138041;23;20068;-82
2021/12/08 07:14:45;;;;;;;18.73;10.68;;;;;;;5.32;84.09;97821.22;6162325;23;20015;-81
2021/12/08 07:17:14;;;;;;;8.88;3.58;;;;;;;5.33;84.32;97817.59;6164075;23;20022;-82
2021/12/08 07:19:45;;;;;;;5.95;1.65;;;;;;;5.32;84.41;97813.28;6138236;23;20013;-81
2021/12/08 07:22:26;;;;;;;5.93;1.10;;;;;;;5.29;83.80;97814.41;6139421;23;20069;-81
2021/12/08 07:24:52;;;;;;;7.95;3.42;;;;;;;5.32;84.45;97816.75;6138739;23;20009;-83
2021/12/08 07:27:24;;;;;;;6.53;2.75;;;;;;;5.32;84.28;97811.47;6163314;23;20064;-82
2021/12/08 07:29:50;;;;;;;4.50;1.38;;;;;;;5.30;84.16;97813.44;6138956;23;20001;-82
2021/12/08 07:32:21;;;;;;;8.05;3.05;;;;;;;5.30;83.84;97818.72;6163106;23;20013;-83
2021/12/08 07:34:50;;;;;;;5.78;1.30;;;;;;;5.28;83.86;97833.97;6138260;23;20015;-82
2021/12/08 07:37:20;;;;;;;7.00;1.70;;;;;;;5.30;84.00;97839.09;6115104;23;19997;-82
2021/12/08 07:39:55;;;;;;;2.20;1.08;;;;;;;5.30;84.06;97853.19;6138475;23;20069;-84
2021/12/08 07:42:33;;;;;;;6.15;1.30;;;;;;;5.30;83.75;97862.94;6138588;23;20002;-81
2021/12/08 07:45:03;;;;;;;5.07;1.30;;;;;;;5.28;82.70;97860.47;6162362;23;20016;-82
2021/12/08 07:47:29;;;;;;;5.90;1.73;;;;;;;5.29;83.19;97863.94;6137465;23;20025;-82
2021/12/08 07:50:00;;;;;;;6.25;1.45;;;;;;;5.27;82.78;97869.41;6138106;23;20002;-80
2021/12/08 07:52:29;;;;;;;3.58;1.27;;;;;;;5.27;82.75;97877.34;6162745;23;20105;-81
2021/12/08 07:54:57;;;;;;;4.00;1.45;;;;;;;5.28;82.43;97873.69;6137772;23;20009;-82
2021/12/08 07:57:28;;;;;;;5.07;1.40;;;;;;;5.27;82.54;97858.78;6162836;23;20013;-80
2021/12/08 07:59:57;;;;;;;4.32;1.30;;;;;;;5.30;82.72;97861.13;6163159;23;20015;-82
2021/12/08 08:02:25;;;;;;;4.15;0.98;;;;;;;5.25;82.30;97865.25;6137379;23;20061;-79
2021/12/08 08:04:52;;;;;;;4.07;1.20;;;;;;;5.24;82.45;97869.69;6162772;23;20429;-82
2021/12/08 08:07:17;;;;;;;5.28;1.20;;;;;;;5.26;82.85;97877.50;6138450;23;20212;-81
2021/12/08 08:09:45;;;;;;;5.25;1.08;;;;;;;5.28;82.69;97872.88;6138469;23;20009;-80
2021/12/08 08:12:16;;;;;;;5.70;0.90;;;;;;;5.28;83.06;97868.41;6138124;23;20087;-82
2021/12/08 08:14:48;;;;;;;4.35;1.20;;;;;;;5.31;82.92;97885.81;6138229;23;20016;-81
2021/12/08 08:17:18;;;;;;;5.18;1.30;;;;;;;5.31;82.82;97873.38;6162839;23;20013;-82
2021/12/08 08:19:45;;;;;;;4.47;1.10;;;;;;;5.28;82.67;97884.31;6162587;23;20037;-80
2021/12/08 08:22:18;;;;;;;5.05;1.23;;;;;;;5.30;82.55;97874.38;6162327;23;20009;-81
2021/12/08 08:24:44;;;;;;;7.78;1.27;;;;;;;5.34;82.32;97877.53;6162947;23;20315;-79
2021/12/08 08:27:11;;;;;;;5.07;1.45;;;;;;;5.29;82.38;97872.72;6163086;23;20017;-80
2021/12/08 08:29:37;;;;;;;4.72;0.88;;;;;;;5.28;82.23;97879.00;6138316;23;20008;-81
2021/12/08 08:32:16;;;;;;;4.05;1.10;;;;;;;5.29;82.48;97877.19;6138103;23;20006;-81
2021/12/08 08:34:44;;;;;;;5.95;1.13;;;;;;;5.26;82.39;97880.97;6162594;23;20054;-82
2021/12/08 08:37:16;;;;;;;4.18;1.15;;;;;;;5.26;81.98;97880.16;6162784;23;20095;-80
2021/12/08 08:39:46;;;;;;;4.68;1.02;;;;;;;5.29;82.21;97872.72;6138632;23;20006;-80
2021/12/08 08:42:19;;;;;;;4.72;1.10;;;;;;;5.29;82.21;97885.13;6162446;23;20009;-79
2021/12/08 08:45:14;;;;;;;3.70;1.08;;;;;;;5.27;81.94;97892.41;6163956;23;20009;-81
2021/12/08 08:47:47;;;;;;;6.28;1.23;;;;;;;5.28;81.83;97902.03;6100157;23;20006;-81
2021/12/08 08:50:17;;;;;;;5.45;1.40;;;;;;;5.23;81.84;97902.47;6163207;23;20024;-81
2021/12/08 08:52:46;;;;;;;5.35;1.20;;;;;;;5.28;81.71;97902.03;6164322;23;20002;-82
2021/12/08 08:55:32;;;;;;;6.38;1.35;;;;;;;5.27;81.17;97903.84;6164175;23;20029;-81
2021/12/08 08:57:58;;;;;;;4.32;1.00;;;;;;;5.26;81.25;97898.69;6138555;23;20006;-82
2021/12/08 09:00:30;;;;;;;5.93;0.95;;;;;;;5.25;81.21;97905.81;6138095;23;20067;-80
2021/12/08 09:02:56;;;;;;;4.55;0.98;;;;;;;5.25;80.46;97904.97;6163457;23;20418;-80
2021/12/08 09:05:32;;;;;;;5.47;1.15;;;;;;;5.24;81.24;97912.09;6163784;23;20001;-81
2021/12/08 09:07:59;;;;;;;4.25;1.00;;;;;;;5.27;81.26;97910.97;6140468;23;20005;-83
2021/12/08 09:10:43;;;;;;;4.80;1.20;;;;;;;5.28;81.37;97907.31;6140711;23;20010;-80
2021/12/08 09:13:15;;;;;;;2.42;0.95;;;;;;;5.32;81.28;97903.38;6140242;23;20086;-82
2021/12/08 09:15:46;;;;;;;4.25;1.17;;;;;;;5.31;81.16;97907.84;6164636;23;20009;-81
2021/12/08 09:18:19;;;;;;;2.95;0.90;;;;;;;5.32;80.75;97898.06;6139945;23;20005;-80
2021/12/08 09:21:16;;;;;;;6.80;1.10;;;;;;;5.33;81.07;97903.22;6139203;23;20033;-83
2021/12/08 09:23:56;;;;;;;4.97;1.20;;;;;;;5.32;80.89;97888.31;6163454;23;20013;-82
2021/12/08 09:26:22;;;;;;;3.25;1.02;;;;;;;5.31;81.07;97883.16;6165850;23;20009;-81
2021/12/08 09:28:55;;;;;;;5.20;1.20;;;;;;;5.38;81.33;97869.13;6140141;23;20005;-80
2021/12/08 09:31:28;;;;;;;3.05;0.90;;;;;;;5.34;80.73;97859.81;6164751;23;20059;-82
2021/12/08 09:34:06;;;;;;;3.65;1.05;;;;;;;5.33;80.73;97871.41;6139520;23;20096;-81
2021/12/08 09:36:45;;;;;;;1.83;0.77;;;;;;;5.32;80.27;97867.09;6139867;23;20739;-81
2021/12/08 09:39:24;;;;;;;5.50;1.05;;;;;;;5.33;80.48;97863.47;6140552;23;20078;-82
2021/12/08 09:42:12;;;;;;;7.05;1.40;;;;;;;5.36;80.26;97863.16;6139530;23;20010;-80
2021/12/08 09:44:42;;;;;;;7.72;1.77;;;;;;;5.36;80.21;97865.78;6165771;23;20005;-81
2021/12/08 09:47:08;;;;;;;5.90;1.20;;;;;;;5.38;80.61;97866.47;6165781;23;20001;-81
2021/12/08 09:49:34;;;;;;;2.72;0.95;;;;;;;5.41;80.82;97865.31;6139770;23;20040;-81
2021/12/08 09:52:01;;;;;;;4.22;0.93;;;;;;;5.42;81.01;97861.69;6139606;23;20005;-81
2021/12/08 09:54:27;;;;;;;1.90;0.73;;;;;;;5.42;80.54;97858.22;6139253;23;20084;-80
2021/12/08 09:56:53;;;;;;;5.57;1.10;;;;;;;5.39;80.63;97867.31;6139768;23;20626;-81
2021/12/08 09:59:19;;;;;;;3.00;1.00;;;;;;;5.41;80.95;97864.50;6139592;23;20020;-82
2021/12/08 10:01:49;;;;;;;6.90;1.15;;;;;;;5.39;80.57;97862.00;6139393;23;20374;-81
2021/12/08 10:04:15;;;;;;;4.57;1.20;;;;;;;5.37;80.27;97869.28;6138891;23;20009;-81
2021/12/08 10:06:49;;;;;;;5.85;1.30;;;;;;;5.36;80.90;97873.75;6139507;23;20108;-80
2021/12/08 10:09:14;;;;;;;3.90;1.30;;;;;;;5.37;80.86;97879.88;6140114;23;20001;-80
2021/12/08 10:11:40;;;;;;;5.20;1.10;;;;;;;5.42;80.76;97890.84;6138801;23;20504;-80
2021/12/08 10:14:05;;;;;;;3.90;1.30;;;;;;;5.48;81.11;97889.38;6138978;23;20393;-82
2021/12/08 10:16:32;;;;;;;4.47;1.20;;;;;;;5.47;80.78;97896.50;6138917;23;20056;-82
2021/12/08 10:18:58;;;;;;;6.07;1.20;;;;;;;5.48;80.49;97907.94;6138846;23;20017;-81
2021/12/08 10:21:35;;;;;;;4.97;1.58;;;;;;;5.56;81.14;97907.97;6138927;23;20014;-79
2021/12/08 10:24:00;;;;;;;3.22;0.95;;;;;;;5.53;80.64;97917.06;6163160;23;20018;-78
2021/12/08 10:26:26;;;;;;;4.63;1.20;;;;;;;5.53;80.96;97921.53;6164075;23;20561;-82
2021/12/08 10:28:54;;;;;;;3.38;1.15;;;;;;;5.54;80.44;97918.75;6139455;23;20006;-82
2021/12/08 10:31:33;;;;;;;4.72;1.35;;;;;;;5.56;80.18;97919.41;6164285;23;20017;-82
2021/12/08 10:34:14;;;;;;;4.05;1.23;;;;;;;5.56;79.91;97914.09;6164049;23;20016;-83
2021/12/08 10:36:56;;;;;;;2.88;1.00;;;;;;;5.57;79.96;97922.91;6141772;23;20322;-81
2021/12/08 10:39:35;;;;;;;3.10;0.90;;;;;;;5.54;79.67;97920.56;6140192;23;20009;-82
2021/12/08 10:42:08;;;;;;;2.50;1.02;;;;;;;5.58;79.52;97929.84;6139311;23;20017;-81
2021/12/08 10:44:54;;;;;;;6.03;1.15;;;;;;;5.56;79.71;97932.66;6163164;23;20013;-83
2021/12/08 10:47:28;;;;;;;3.85;1.17;;;;;;;5.60;79.72;97939.31;6139625;23;20002;-83
2021/12/08 10:55:19;;;;;;;3.88;0.98;;;;;;;5.67;79.43;97939.53;6142623;23;20021;-83
2021/12/08 10:57:49;;;;;;;5.25;1.40;;;;;;;5.67;79.50;97939.53;6164123;23;20016;-82
2021/12/08 11:00:28;;;;;;;4.10;1.15;;;;;;;5.70;79.76;97947.19;6153377;23;20015;-83
2021/12/08 11:02:53;;;;;;;;;;;;;;;5.70;79.67;97936.59;6164195;23;20076;-81
2021/12/08 11:05:24;;;;;;;5.53;1.15;;;;;;;5.70;79.02;97939.22;6164702;23;19904;-83
2021/12/08 11:08:14;;;;;;;2.35;0.82;;;;;;;5.76;79.16;97940.41;6138571;23;20013;-83
2021/12/08 11:10:52;;;;;;;3.47;1.55;;;;;;;5.74;79.78;97937.09;6164988;23;20053;-82
2021/12/08 11:13:20;;;;;;;1.25;0.98;;;;;;;5.74;79.41;97937.94;6163353;23;20093;-81
2021/12/08 11:15:46;;;;;;;;;;;;;;;5.75;79.07;97944.91;6139940;23;20001;-81
2021/12/08 11:18:22;;;;;;;3.33;0.80;;;;;;;5.76;79.45;97951.03;6114130;23;19919;-83
2021/12/08 11:20:50;;;;;;;3.47;0.93;;;;;;;5.79;78.84;97956.84;6163815;23;20036;-83
2021/12/08 11:23:38;;;;;;;1.83;0.80;;;;;;;5.81;78.85;97952.22;6138609;23;20021;-83
2021/12/08 11:26:10;;;;;;;2.50;0.80;;;;;;;5.84;79.25;97959.84;6142427;23;20006;-83
2021/12/08 11:28:35;;;;;;;1.85;0.80;;;;;;;5.87;78.76;97964.84;6138207;23;20002;-82
2021/12/08 11:31:15;;;;;;;2.78;1.00;;;;;;;5.88;78.98;97960.38;6163615;23;20008;-84
2021/12/08 11:33:47;;;;;;;3.95;0.80;;;;;;;5.90;78.24;97958.44;6138521;23;20006;-83
2021/12/08 11:36:18;;;;;;;3.90;0.80;;;;;;;5.90;78.57;97959.25;6139759;23;20009;-81
2021/12/08 11:38:47;;;;;;;3.45;1.00;;;;;;;5.91;78.61;97963.56;6139039;23;20032;-82
2021/12/08 11:41:24;;;;;;;4.63;1.15;;;;;;;5.91;78.92;97962.75;6138570;23;20361;-81
2021/12/08 11:43:52;;;;;;;4.15;1.00;;;;;;;5.88;78.53;97963.03;6164342;23;20036;-83
2021/12/08 11:46:18;;;;;;;2.90;0.80;;;;;;;5.87;78.77;97967.50;6162970;23;20033;-83
2021/12/08 11:49:06;;;;;;;4.40;0.95;;;;;;;5.89;78.77;97975.28;6138738;23;20001;-83
2021/12/08 11:51:35;;;;;;;2.50;0.82;;;;;;;5.90;78.63;97969.03;6165049;23;20480;-82
2021/12/08 11:54:01;;;;;;;3.00;1.20;;;;;;;5.93;79.00;97968.72;6138580;23;20006;-83
2021/12/08 11:56:39;;;;;;;2.40;0.80;;;;;;;5.98;79.26;97979.69;6114121;23;20060;-83
2021/12/08 11:59:07;;;;;;;3.85;0.82;;;;;;;6.01;79.41;97982.03;6139035;23;20005;-82
2021/12/08 12:01:33;;;;;;;2.95;0.98;;;;;;;6.04;79.01;97976.41;6138512;23;20337;-81
2021/12/08 12:03:59;;;;;;;2.33;0.93;;;;;;;6.03;78.63;97977.38;6114364;23;20012;-82
2021/12/08 12:06:28;;;;;;;4.72;0.88;;;;;;;6.04;78.05;97972.91;6138639;23;20033;-83
2021/12/08 12:08:59;;;;;;;3.00;0.82;;;;;;;6.09;78.47;97965.31;6139827;23;19998;-82
2021/12/08 12:11:28;;;;;;;2.33;0.68;;;;;;;6.11;77.79;97960.69;6138131;23;20041;-83
2021/12/08 12:13:55;;;;;;;1.77;0.80;;;;;;;6.20;77.62;97967.72;6114093;23;20018;-82
2021/12/08 12:16:22;;;;;;;5.50;1.00;;;;;;;6.13;77.51;97972.78;6138271;23;20017;-82
2021/12/08 12:18:55;;;;;;;2.92;0.80;;;;;;;6.11;77.18;97968.63;6163319;23;20024;-81
2021/12/08 12:21:39;;;;;;;2.83;0.98;;;;;;;6.09;76.97;97973.28;6139082;23;20013;-82
2021/12/08 12:24:28;;;;;;;4.18;0.90;;;;;;;6.08;77.67;97985.69;6138524;23;20022;-82
2021/12/08 12:27:14;;;;;;;3.03;0.82;;;;;;;6.08;77.03;97991.00;6138579;23;20394;-82
2021/12/08 12:30:04;;;;;;;1.33;0.60;;;;;;;6.08;76.84;97996.31;6138586;23;20017;-82
2021/12/08 12:32:37;;;;;;;2.67;0.82;;;;;;;6.07;77.26;98004.44;6138420;23;20009;-82
2021/12/08 12:35:10;;;;;;;2.53;0.77;;;;;;;6.05;77.23;98003.75;6137393;23;20088;-81
2021/12/08 12:37:37;;;;;;;2.13;0.85;;;;;;;6.05;76.69;98011.72;6137962;23;20061;-82
2021/12/08 12:40:06;;;;;;;5.53;1.05;;;;;;;6.04;76.59;98012.72;6137306;23;20037;-81
2021/12/08 12:42:48;;;;;;;3.70;0.75;;;;;;;6.05;76.09;98020.50;6138047;23;20073;-83
2021/12/08 12:45:15;;;;;;;5.28;0.95;;;;;;;6.02;76.46;98023.47;6133302;23;20013;-83
2021/12/08 12:47:41;;;;;;;1.60;0.60;;;;;;;6.02;76.58;98023.47;6133147;23;20005;-83